Airfield :
LOGIN :

Register | Disclaimer

   EN    FR    IT 

 










Legend :    VFR   Marginal VFR   IFR   Intensive IFR   Very Intensive IFR
Visi :
Ceiling :
>= 8 km
>= 3000ft
5 to 8 km
1000 to 3000 ft
1500m to 5 km
500 to 1000 ft
800 to 1500m
200 to 500 ft
< 800m
< 200 ft
Symbols :   Thunderstorms  Fog  Heavy snow  Heavy precipitations  Wind > 20 kt
SIGMETs :     Misc.  Thunderstorms  Icing  Turbulence  Mountain Waves  Volcanic Ashes






- Airport Elevation : 352 ft
- IATA code : ARW


LRAR - Arad International

CURRENT METAR :
  • 301030Z 36015KT 9999 FEW035 10/00 Q1016

EXPIRED METARs :
  • 301000Z 01014KT 340V040 9999 FEW033 10/01 Q1016
  • 300930Z 36013KT 9999 SCT032 10/02 Q1016
  • 300900Z 01013KT 340V050 9999 SCT030 10/03 Q1015
  • 300830Z 36012KT 9999 FEW030 10/03 Q1015
  • 300800Z 35012KT 320V020 CAVOK 09/03 Q1015

TAF TAF LRAR
Valid from the 30 at 09:00 until the 30 at 18:00 UTC


300800Z 3009/3018 36017KT CAVOK
TEMPO 3010/3015 01017G30KT



MET'MAP, your aeronautical weather chart ! - Copyright ORBIFLY December 2007 - Disclaimer

ORBIFLY MET'MAP TEAM :

Programming & Development : Alexandra Zaïnal
Concept & original design : Baudouin d'Aumeries
Assistance for programming : Marc-Olivier Méhu
Technical & hardware support : Manuel Goepfert

Contact : metmap@orbifly.com




SOURCES & CREDITS :

   NOAA